createdAt,value
2018-09-19T00:00:32.743Z,99937.41
2018-09-19T00:03:01.264Z,99942.18
2018-09-19T00:05:29.950Z,99942.67
2018-09-19T00:07:58.440Z,99948.39
2018-09-19T00:10:26.949Z,99946.56
2018-09-19T00:12:55.445Z,99945.34
2018-09-19T00:15:23.919Z,99939.91
2018-09-19T00:17:52.411Z,99936.46
2018-09-19T00:20:20.971Z,99943.13
2018-09-19T00:22:49.453Z,99942.73
2018-09-19T00:25:17.938Z,99950.73
2018-09-19T00:27:46.447Z,99947.20
2018-09-19T00:30:15.009Z,99944.14
2018-09-19T00:32:43.494Z,99943.86
2018-09-19T00:35:12.004Z,99950.98
2018-09-19T00:37:40.535Z,99949.58
2018-09-19T00:40:09.648Z,99952.48
2018-09-19T00:42:38.173Z,99957.91
2018-09-19T00:45:06.668Z,99961.09
2018-09-19T00:47:35.192Z,99957.27
2018-09-19T00:50:03.761Z,99956.11
2018-09-19T00:52:32.245Z,99957.68
2018-09-19T00:55:00.691Z,99958.30
2018-09-19T00:57:29.161Z,99960.81
2018-09-19T00:59:57.675Z,99965.50
2018-09-19T01:02:26.233Z,99963.45
2018-09-19T01:04:54.750Z,99971.61
2018-09-19T01:07:24.110Z,99978.05
2018-09-19T01:09:52.628Z,99976.45
2018-09-19T01:12:21.112Z,99979.84
2018-09-19T01:14:49.681Z,99982.38
2018-09-19T01:17:18.282Z,99978.12
2018-09-19T01:19:46.861Z,99978.34
2018-09-19T01:22:15.413Z,99974.18
2018-09-19T01:24:43.857Z,99977.88
2018-09-19T01:27:12.346Z,99977.55
2018-09-19T01:29:40.878Z,99982.61
2018-09-19T01:32:09.479Z,99981.50
2018-09-19T01:34:37.956Z,99982.21
2018-09-19T01:37:06.590Z,99985.48
2018-09-19T01:39:35.176Z,99993.75
2018-09-19T01:42:03.725Z,99985.92
2018-09-19T01:44:32.454Z,99984.74
2018-09-19T01:47:00.933Z,99991.52
2018-09-19T01:49:29.441Z,100021.88
2018-09-19T01:51:57.951Z,99991.49
2018-09-19T01:54:26.448Z,99991.64
2018-09-19T01:56:55.272Z,99988.66
2018-09-19T01:59:23.858Z,99997.75
2018-09-19T02:01:53.134Z,100007.66
2018-09-19T02:04:21.657Z,100009.66
2018-09-19T02:06:50.198Z,100013.39
2018-09-19T02:09:18.705Z,100001.09
2018-09-19T02:11:47.239Z,100005.17
2018-09-19T02:14:15.737Z,100001.70
2018-09-19T02:16:44.262Z,100012.09
2018-09-19T02:19:12.798Z,100013.87
2018-09-19T02:21:41.291Z,100010.96
2018-09-19T02:24:09.741Z,100005.70
2018-09-19T02:26:38.248Z,100012.89
2018-09-19T02:29:06.729Z,100010.29
2018-09-19T02:31:35.241Z,100005.17
2018-09-19T02:34:03.767Z,100004.39
2018-09-19T02:36:32.237Z,99998.94
2018-09-19T02:39:00.740Z,99999.14
2018-09-19T02:41:29.415Z,99995.30
2018-09-19T02:43:57.951Z,99986.73
2018-09-19T02:46:26.468Z,99990.86
2018-09-19T02:48:54.952Z,99993.83
2018-09-19T02:51:23.514Z,99998.49
2018-09-19T02:53:52.025Z,99990.20
2018-09-19T02:56:20.543Z,99994.67
2018-09-19T02:58:48.973Z,99987.53
2018-09-19T03:01:17.504Z,99985.32
2018-09-19T03:03:46.073Z,99986.65
2018-09-19T03:06:14.574Z,99989.30
2018-09-19T03:08:43.099Z,99995.95
2018-09-19T03:11:11.637Z,100006.14
2018-09-19T03:13:40.143Z,99999.59
2018-09-19T03:16:08.663Z,99999.19
2018-09-19T03:18:37.151Z,100007.61
2018-09-19T03:21:05.810Z,100005.01
2018-09-19T03:23:34.272Z,100008.68
2018-09-19T03:26:02.886Z,100006.08
2018-09-19T03:28:31.403Z,99998.25
2018-09-19T03:30:59.864Z,99997.91
2018-09-19T03:33:28.420Z,100006.72
2018-09-19T03:35:56.975Z,100007.99
2018-09-19T03:38:25.434Z,99999.98
2018-09-19T03:40:53.962Z,100004.80
2018-09-19T03:43:22.660Z,99996.30
2018-09-19T03:45:51.193Z,99990.54
2018-09-19T03:48:19.737Z,99989.66
2018-09-19T03:50:48.232Z,99989.61
2018-09-19T03:53:16.748Z,99992.13
2018-09-19T03:55:45.276Z,99989.47
2018-09-19T03:58:13.848Z,99993.87
2018-09-19T04:00:42.485Z,99996.98
2018-09-19T04:03:11.150Z,100000.97
2018-09-19T04:05:39.700Z,99999.25
2018-09-19T04:08:08.470Z,100002.83
2018-09-19T04:10:36.979Z,100012.12
2018-09-19T04:13:05.522Z,100016.56
2018-09-19T04:15:34.444Z,100010.99
2018-09-19T04:18:02.967Z,100018.56
2018-09-19T04:20:31.455Z,100020.34
2018-09-19T04:23:00.124Z,100019.02
2018-09-19T04:25:28.607Z,100018.17
2018-09-19T04:27:57.229Z,100009.91
2018-09-19T04:30:25.697Z,100007.92
2018-09-19T04:32:54.326Z,100012.95
2018-09-19T04:35:22.805Z,100018.79
2018-09-19T04:37:51.386Z,100017.06
2018-09-19T04:40:19.925Z,100032.04
2018-09-19T04:42:48.447Z,100022.95
2018-09-19T04:45:16.974Z,100025.22
2018-09-19T04:47:45.417Z,100023.89
2018-09-19T04:50:13.994Z,100021.68
2018-09-19T04:52:42.475Z,100014.30
2018-09-19T04:55:10.979Z,100017.63
2018-09-19T04:57:42.689Z,99893.88
2018-09-19T05:00:11.240Z,100016.45
2018-09-19T05:02:41.590Z,100007.80
2018-09-19T05:05:10.251Z,100003.50
2018-09-19T05:07:39.377Z,100000.84
2018-09-19T05:10:07.929Z,100007.39
2018-09-19T05:12:36.565Z,100006.02
2018-09-19T05:15:05.131Z,100017.91
2018-09-19T05:17:35.497Z,100019.63
2018-09-19T05:20:04.140Z,100020.43
2018-09-19T05:22:32.823Z,100023.44
2018-09-19T05:27:34.480Z,100026.97
2018-09-19T05:30:03.296Z,100024.61
2018-09-19T05:32:33.996Z,100026.20
2018-09-19T05:35:02.771Z,100022.70
2018-09-19T05:37:31.493Z,100028.45
2018-09-19T05:40:02.297Z,100019.22
2018-09-19T05:42:36.533Z,100023.59
2018-09-19T05:45:05.470Z,100025.80
2018-09-19T05:47:34.798Z,100027.52
2018-09-19T05:50:03.439Z,100028.32
2018-09-19T05:52:32.183Z,100035.30
2018-09-19T05:55:00.960Z,100031.67
2018-09-19T05:57:29.673Z,100027.89
2018-09-19T05:59:58.434Z,100034.08
2018-09-19T06:02:27.018Z,100021.60
2018-09-19T06:04:55.924Z,100028.16
2018-09-19T06:07:24.548Z,100022.66
2018-09-19T06:09:53.273Z,100024.42
2018-09-19T06:12:22.209Z,100023.20
2018-09-19T06:14:51.085Z,100014.48
2018-09-19T06:17:21.430Z,100014.86
2018-09-19T06:19:50.904Z,100013.31
2018-09-19T06:22:19.612Z,100008.05
2018-09-19T06:24:48.538Z,100000.39
2018-09-19T06:27:18.308Z,100004.22
2018-09-19T06:29:47.300Z,99996.42
2018-09-19T06:32:15.921Z,100001.67
2018-09-19T06:34:44.615Z,99997.66
2018-09-19T06:37:13.226Z,99997.66
2018-09-19T06:39:41.922Z,100005.11
2018-09-19T06:42:10.615Z,100006.03
2018-09-19T06:44:39.514Z,100008.39
2018-09-19T06:47:08.177Z,100008.52
2018-09-19T06:49:36.966Z,99998.41
2018-09-19T06:52:05.772Z,99997.38
2018-09-19T06:54:34.409Z,99997.81
2018-09-19T06:57:03.003Z,99994.45
2018-09-19T06:59:31.744Z,99987.58
2018-09-19T07:02:00.433Z,99981.88
2018-09-19T07:04:28.996Z,99980.03
2018-09-19T07:06:57.671Z,99987.98
2018-09-19T07:09:26.360Z,99989.21
2018-09-19T07:11:55.015Z,99991.98
2018-09-19T07:14:23.650Z,99989.70
2018-09-19T07:16:52.460Z,99998.14
2018-09-19T07:19:21.206Z,99998.83
2018-09-19T07:21:49.795Z,100000.12
2018-09-19T07:24:18.426Z,99996.05
2018-09-19T07:26:47.052Z,99992.73
2018-09-19T07:29:15.732Z,99999.67
2018-09-19T07:31:44.445Z,100001.55
2018-09-19T07:34:13.037Z,100003.67
2018-09-19T07:36:41.548Z,100009.35
2018-09-19T07:39:11.680Z,99994.70
2018-09-19T07:41:40.280Z,100003.47
2018-09-19T07:44:09.755Z,100008.48
2018-09-19T07:46:38.271Z,100006.92
2018-09-19T07:49:06.756Z,100011.26
2018-09-19T07:51:35.251Z,100016.05
2018-09-19T07:54:03.773Z,100027.05
2018-09-19T07:56:32.400Z,100031.35
2018-09-19T07:59:00.894Z,100020.75
2018-09-19T08:01:29.452Z,100033.06
2018-09-19T08:03:57.947Z,99957.05
2018-09-19T08:06:26.438Z,100015.94
2018-09-19T08:08:54.975Z,100019.59
2018-09-19T08:11:23.523Z,100018.02
2018-09-19T08:13:52.139Z,100027.52
2018-09-19T08:16:21.653Z,100027.81
2018-09-19T08:18:50.441Z,100020.86
2018-09-19T08:21:18.912Z,100022.23
2018-09-19T08:23:48.323Z,100016.52
2018-09-19T08:26:16.887Z,100016.78
2018-09-19T08:28:45.440Z,100018.44
2018-09-19T08:31:14.011Z,100029.01
2018-09-19T08:33:42.536Z,100032.34
2018-09-19T08:36:11.032Z,100035.69
2018-09-19T08:38:39.576Z,100048.77
2018-09-19T08:41:08.117Z,100044.20
2018-09-19T08:43:36.608Z,100046.95
2018-09-19T08:46:05.178Z,100042.16
2018-09-19T08:48:33.700Z,100039.01
2018-09-19T08:51:02.294Z,100042.61
2018-09-19T08:53:30.802Z,100036.02
2018-09-19T08:55:59.400Z,100033.09
2018-09-19T08:58:27.932Z,100029.23
2018-09-19T09:00:56.525Z,100022.18
2018-09-19T09:03:24.993Z,100019.28
2018-09-19T09:05:53.493Z,100022.07
2018-09-19T09:08:21.964Z,100002.45
2018-09-19T09:10:50.495Z,100023.75
2018-09-19T09:13:19.055Z,100019.06
2018-09-19T09:15:47.548Z,100006.82
2018-09-19T09:18:16.085Z,100011.06
2018-09-19T09:20:44.583Z,100006.41
2018-09-19T09:23:13.067Z,100007.16
2018-09-19T09:25:41.533Z,100017.45
2018-09-19T09:28:10.418Z,100015.86
2018-09-19T09:30:38.927Z,100021.78
2018-09-19T09:33:07.725Z,100017.98
2018-09-19T09:35:36.519Z,100032.38
2018-09-19T09:38:04.960Z,100014.19
2018-09-19T09:40:33.580Z,100025.47
2018-09-19T09:43:02.004Z,100018.16
2018-09-19T09:45:30.493Z,99999.51
2018-09-19T09:47:58.925Z,100008.36
2018-09-19T09:50:27.503Z,100012.31
2018-09-19T09:52:55.959Z,100017.17
2018-09-19T09:55:24.464Z,100003.20
2018-09-19T09:57:52.955Z,99998.06
2018-09-19T10:00:26.707Z,99991.18
2018-09-19T10:02:55.209Z,99989.42
2018-09-19T10:05:23.786Z,99995.80
2018-09-19T10:07:52.493Z,99993.86
2018-09-19T10:10:21.017Z,99994.11
2018-09-19T10:12:49.612Z,99992.45
2018-09-19T10:15:18.214Z,99995.84
2018-09-19T10:17:46.816Z,100002.20
2018-09-19T10:20:15.434Z,99986.23
2018-09-19T10:22:43.982Z,99995.80
2018-09-19T10:25:12.598Z,99990.98
2018-09-19T10:27:41.231Z,100005.60
2018-09-19T10:30:09.833Z,99995.90
2018-09-19T10:32:38.495Z,99984.12
2018-09-19T10:35:07.200Z,99985.19
2018-09-19T10:37:35.741Z,99983.00
2018-09-19T10:40:04.478Z,100003.05
2018-09-19T10:42:33.055Z,99988.26
2018-09-19T10:45:01.601Z,99980.12
2018-09-19T10:47:31.485Z,99981.45
2018-09-19T10:50:00.076Z,99980.52
2018-09-19T10:52:28.687Z,99977.42
2018-09-19T10:54:57.321Z,99966.39
2018-09-19T10:57:25.899Z,99966.21
2018-09-19T10:59:54.403Z,99967.85
2018-09-19T11:02:22.952Z,99959.76
2018-09-19T11:04:51.463Z,99959.98
2018-09-19T11:07:20.028Z,99957.86
2018-09-19T11:09:48.859Z,99924.63
2018-09-19T11:12:17.478Z,99959.05
2018-09-19T11:14:46.124Z,99962.45
2018-09-19T11:17:14.745Z,99946.56
2018-09-19T11:19:43.341Z,99941.03
2018-09-19T11:22:11.924Z,99934.09
2018-09-19T11:24:40.507Z,99960.64
2018-09-19T11:27:09.864Z,99945.82
2018-09-19T11:29:38.512Z,99939.90
2018-09-19T11:32:07.036Z,99940.60
2018-09-19T11:34:35.593Z,99967.39
2018-09-19T12:16:40.371Z,99921.98
2018-09-19T12:19:09.141Z,99921.05
2018-09-19T12:21:37.927Z,99917.00
2018-09-19T12:24:06.531Z,99911.31
2018-09-19T12:26:35.496Z,99913.25
2018-09-19T12:29:04.299Z,99911.45
2018-09-19T12:31:33.008Z,99909.51
2018-09-19T12:34:01.828Z,99923.70
2018-09-19T12:36:30.627Z,99901.75
2018-09-19T12:38:59.472Z,99912.68
2018-09-19T12:41:28.024Z,99899.06
2018-09-19T12:43:57.026Z,99900.73
2018-09-19T12:46:25.854Z,99905.39
2018-09-19T12:48:54.959Z,99908.67
2018-09-19T12:51:23.944Z,99895.07
2018-09-19T12:53:52.829Z,99895.57
2018-09-19T12:56:22.350Z,99886.92
2018-09-19T12:58:51.168Z,99887.27
2018-09-19T13:01:20.113Z,99908.67
2018-09-19T13:03:48.857Z,99902.91
2018-09-19T13:06:17.799Z,99898.98
2018-09-19T13:08:46.655Z,99891.14
2018-09-19T13:11:15.421Z,99894.19
2018-09-19T13:13:44.278Z,99905.75
2018-09-19T13:16:12.985Z,99894.70
2018-09-19T13:18:41.753Z,99895.70
2018-09-19T13:21:10.605Z,99890.08
2018-09-19T13:23:39.324Z,99896.15
2018-09-19T13:26:08.111Z,99883.21
2018-09-19T13:28:36.865Z,99892.94
2018-09-19T13:31:05.723Z,99885.61
2018-09-19T13:33:34.526Z,99877.46
2018-09-19T13:36:03.256Z,99868.59
2018-09-19T13:38:32.006Z,99873.18
2018-09-19T13:41:00.787Z,99874.84
2018-09-19T13:43:29.570Z,99869.50
2018-09-19T13:45:58.356Z,99868.41
2018-09-19T13:48:27.397Z,99863.41
2018-09-19T13:51:06.227Z,99855.57
2018-09-19T13:53:35.220Z,99866.77
2018-09-19T13:56:03.904Z,99864.39
2018-09-19T13:58:32.553Z,99869.28
2018-09-19T14:01:01.278Z,99862.55
2018-09-19T14:03:29.928Z,99864.04
2018-09-19T14:05:58.769Z,99849.73
2018-09-19T14:08:27.413Z,99852.73
2018-09-19T14:10:55.950Z,99862.09
2018-09-19T14:13:24.614Z,99863.58
2018-09-19T14:15:53.376Z,99847.75
2018-09-19T14:18:22.044Z,99854.48
2018-09-19T14:20:50.666Z,99853.50
2018-09-19T14:23:19.365Z,99847.64
2018-09-19T14:25:48.068Z,99848.58
2018-09-19T14:28:16.788Z,99850.77
2018-09-19T14:30:45.688Z,99846.67
2018-09-19T14:33:14.492Z,99848.48
2018-09-19T14:35:43.352Z,99840.81
2018-09-19T14:38:12.788Z,99842.22
2018-09-19T14:40:41.455Z,99860.73
2018-09-19T14:43:10.173Z,99848.23
2018-09-19T14:45:39.179Z,99837.68
2018-09-19T14:48:07.644Z,99845.62
2018-09-19T14:50:36.264Z,99321.15
2018-09-19T14:53:05.082Z,99860.11
2018-09-19T14:55:34.621Z,99837.98
2018-09-19T14:58:03.345Z,99839.88
2018-09-19T15:00:32.020Z,99834.36
2018-09-19T15:03:00.622Z,99844.17
2018-09-19T15:05:29.601Z,99838.38
2018-09-19T15:07:58.526Z,99833.64
2018-09-19T15:10:27.319Z,99830.23
2018-09-19T15:12:56.373Z,99822.33
2018-09-19T15:15:25.140Z,99830.83
2018-09-19T15:17:53.896Z,99823.28
2018-09-19T15:20:22.909Z,99837.95
2018-09-19T15:22:51.661Z,99836.59
2018-09-19T15:25:20.269Z,99827.76
2018-09-19T15:27:49.150Z,99817.24
2018-09-19T15:30:18.069Z,99829.59
2018-09-19T15:32:46.765Z,99826.54
2018-09-19T15:35:15.446Z,99825.41
2018-09-19T15:37:44.184Z,99828.37
2018-09-19T15:40:12.908Z,99831.52
2018-09-19T15:42:41.712Z,99829.89
2018-09-19T15:45:10.566Z,99831.03
2018-09-19T15:47:39.275Z,99828.50
2018-09-19T15:50:08.174Z,99828.71
2018-09-19T15:52:36.825Z,99827.80
2018-09-19T15:55:05.581Z,99832.59
2018-09-19T15:57:34.475Z,99839.14
2018-09-19T16:00:03.376Z,99834.52
2018-09-19T16:02:32.077Z,99844.83
2018-09-19T16:05:00.686Z,99848.25
2018-09-19T16:07:29.461Z,99849.45
2018-09-19T16:09:58.177Z,99847.46
2018-09-19T16:12:26.797Z,99857.82
2018-09-19T16:14:55.443Z,99845.50
2018-09-19T16:17:24.065Z,99851.81
2018-09-19T16:19:52.705Z,99848.66
2018-09-19T16:22:21.799Z,99842.06
2018-09-19T16:24:50.520Z,99850.00
2018-09-19T16:27:19.210Z,99846.11
2018-09-19T16:29:48.010Z,99353.30
2018-09-19T17:16:03.692Z,99895.06
2018-09-19T17:18:32.355Z,99893.52
2018-09-19T17:21:01.251Z,99899.67
2018-09-19T17:23:30.017Z,99893.81
2018-09-19T17:25:58.751Z,99906.31
2018-09-19T17:28:27.241Z,99903.39
2018-09-19T17:30:55.896Z,99900.94
2018-09-19T17:33:24.594Z,99908.05
2018-09-19T17:35:53.368Z,99909.40
2018-09-19T17:38:21.984Z,99910.65
2018-09-19T17:40:50.563Z,99921.42
2018-09-19T17:43:19.189Z,99925.94
2018-09-19T17:45:47.934Z,99919.30
2018-09-19T17:48:16.516Z,99926.53
2018-09-19T17:50:45.172Z,99930.05
2018-09-19T17:53:13.808Z,99930.56
2018-09-19T17:55:42.400Z,99932.73
2018-09-19T17:58:10.990Z,99934.08
2018-09-19T18:00:39.606Z,99933.56
2018-09-19T18:03:08.258Z,99935.04
2018-09-19T18:05:36.829Z,99940.01
2018-09-19T18:08:05.414Z,99941.92
2018-09-19T18:10:34.036Z,99937.41
2018-09-19T18:13:02.588Z,99779.16
2018-09-19T18:15:31.141Z,99941.27
2018-09-19T18:17:59.668Z,99953.34
2018-09-19T18:20:28.448Z,99950.13
2018-09-19T18:22:56.967Z,99959.05
2018-09-19T18:25:25.629Z,99960.84
2018-09-19T18:27:54.226Z,99963.50
2018-09-19T18:30:22.737Z,99974.59
2018-09-19T18:32:51.234Z,99974.66
2018-09-19T18:35:19.753Z,99983.94
2018-09-19T18:37:48.328Z,99992.77
2018-09-19T18:40:17.409Z,99990.05
2018-09-19T18:42:46.025Z,99993.20
2018-09-19T18:45:14.618Z,99999.27
2018-09-19T18:47:43.367Z,99998.69
2018-09-19T18:50:13.346Z,100004.02
2018-09-19T18:52:41.852Z,100013.61
2018-09-19T18:55:10.380Z,100009.53
2018-09-19T18:57:38.906Z,100017.63
2018-09-19T19:00:07.473Z,100023.89
2018-09-19T19:02:35.943Z,100022.00
2018-09-19T19:05:04.461Z,100030.87
2018-09-19T19:07:33.022Z,100032.63
2018-09-19T19:10:01.622Z,100033.91
2018-09-19T19:12:30.073Z,100038.06
2018-09-19T19:14:58.509Z,100034.85
2018-09-19T19:17:27.069Z,100037.47
2018-09-19T19:19:55.543Z,100042.77
2018-09-19T19:22:24.065Z,100046.23
2018-09-19T19:24:52.556Z,100048.84
2018-09-19T19:27:20.986Z,100046.44
2018-09-19T19:29:49.478Z,100049.43
2018-09-19T19:32:17.980Z,100045.62
2018-09-19T19:34:46.450Z,100048.23
2018-09-19T19:37:14.936Z,100049.97
2018-09-19T19:39:43.411Z,100053.70
2018-09-19T19:42:11.934Z,100050.11
2018-09-19T19:44:40.501Z,100058.33
2018-09-19T19:47:09.107Z,100060.46
2018-09-19T19:49:37.634Z,100061.05
2018-09-19T19:52:06.197Z,100063.15
2018-09-19T19:54:34.748Z,100062.02
2018-09-19T19:57:03.316Z,100064.03
2018-09-19T19:59:31.969Z,100070.06
2018-09-19T20:02:00.673Z,100073.03
2018-09-19T20:04:29.465Z,100073.70
2018-09-19T20:06:58.086Z,100077.98
2018-09-19T20:09:26.661Z,100075.59
2018-09-19T20:11:55.317Z,100083.84
2018-09-19T20:14:24.079Z,100080.11
2018-09-19T20:16:52.803Z,100083.08
2018-09-19T20:19:21.437Z,100083.27
2018-09-19T20:21:50.221Z,100077.33
2018-09-19T20:24:18.958Z,100081.17
2018-09-19T20:26:47.780Z,100080.00
2018-09-19T20:29:16.444Z,100079.33
2018-09-19T20:31:45.204Z,100078.19
2018-09-19T20:34:13.722Z,100081.91
2018-09-19T20:36:42.302Z,100087.46
2018-09-19T20:39:11.566Z,100085.94
2018-09-19T20:41:40.154Z,100086.60
2018-09-19T20:44:08.852Z,100090.02
2018-09-19T20:46:37.500Z,100090.41
2018-09-19T20:49:06.101Z,100096.30
2018-09-19T20:51:34.691Z,100096.17
2018-09-19T20:54:03.348Z,100102.67
2018-09-19T20:56:32.030Z,100102.95
2018-09-19T20:59:00.661Z,100104.55
2018-09-19T21:01:29.397Z,100108.08
2018-09-19T21:03:57.871Z,100103.84
2018-09-19T21:06:26.503Z,100112.13
2018-09-19T21:08:55.130Z,100115.56
2018-09-19T21:11:23.780Z,100117.17
2018-09-19T21:13:52.427Z,100121.91
2018-09-19T21:16:21.074Z,100130.19
2018-09-19T21:18:49.789Z,100124.27
2018-09-19T21:21:18.422Z,100125.17
2018-09-19T21:23:47.008Z,100125.41
2018-09-19T21:26:15.772Z,100122.22
2018-09-19T21:28:44.404Z,100113.12
2018-09-19T21:31:13.027Z,100117.85
2018-09-19T21:33:41.646Z,100119.45
2018-09-19T21:36:10.276Z,100124.97
2018-09-19T21:38:38.896Z,100127.52
2018-09-19T21:41:07.712Z,100127.38
2018-09-19T21:43:36.527Z,100131.64
2018-09-19T21:46:05.205Z,100134.07
2018-09-19T21:48:33.898Z,100138.25
2018-09-19T21:51:02.567Z,100138.96
2018-09-19T21:53:31.257Z,100137.42
2018-09-19T21:56:00.061Z,100138.51
2018-09-19T21:58:28.770Z,100137.84
2018-09-19T22:01:02.713Z,100139.31
2018-09-19T22:03:31.404Z,100134.19
2018-09-19T22:06:00.059Z,100134.82
2018-09-19T22:08:28.782Z,100136.72
2018-09-19T22:10:57.342Z,100131.55
2018-09-19T22:13:25.950Z,100134.86
2018-09-19T22:15:54.608Z,100138.54
2018-09-19T22:18:23.443Z,100133.38
2018-09-19T22:20:52.147Z,100132.73
2018-09-19T22:23:20.770Z,100130.24
2018-09-19T22:25:49.293Z,100130.48
2018-09-19T22:28:17.923Z,100131.11
2018-09-19T22:30:46.644Z,100130.40
2018-09-19T22:33:15.234Z,100135.52
2018-09-19T22:35:43.949Z,100130.81
2018-09-19T22:38:12.658Z,100132.37
2018-09-19T22:40:41.278Z,100126.89
2018-09-19T22:43:09.943Z,100126.18
2018-09-19T22:45:38.556Z,100122.80
2018-09-19T22:48:07.242Z,100120.30
2018-09-19T22:50:35.808Z,100126.19
2018-09-19T22:53:04.462Z,100124.02
2018-09-19T22:55:33.190Z,100119.72
2018-09-19T22:58:01.772Z,100127.08
2018-09-19T23:00:30.371Z,100122.30
2018-09-19T23:02:59.014Z,100114.53
2018-09-19T23:05:27.675Z,100120.03
2018-09-19T23:07:56.406Z,100112.16
2018-09-19T23:10:25.036Z,100118.92
2018-09-19T23:12:53.664Z,100117.72
2018-09-19T23:15:22.238Z,100117.81
2018-09-19T23:17:50.786Z,100122.04
2018-09-19T23:20:19.371Z,100117.72
2018-09-19T23:22:47.985Z,100114.33
2018-09-19T23:25:16.602Z,100111.89
2018-09-19T23:27:45.208Z,100113.39
2018-09-19T23:30:13.815Z,100111.34
2018-09-19T23:32:42.433Z,100118.06
2018-09-19T23:35:11.218Z,100111.17
2018-09-19T23:37:39.805Z,100111.69
2018-09-19T23:40:08.527Z,100107.85
2018-09-19T23:42:37.089Z,100103.13
2018-09-19T23:45:06.323Z,100107.29
2018-09-19T23:47:34.994Z,100106.18
2018-09-19T23:50:03.633Z,100093.95
2018-09-19T23:52:32.263Z,100090.94
2018-09-19T23:55:00.871Z,100092.00
2018-09-19T23:57:29.496Z,100089.03
2018-09-19T23:59:58.089Z,100086.50
